sensor_id;sensor_type;location;lat;lon;timestamp;P1;durP1;ratioP1;P2;durP2;ratioP2
68923;SDS011;55961;52.156;20.942;2023-07-24T00:01:13;9.70;;;5.32;;
68923;SDS011;55961;52.156;20.942;2023-07-24T00:03:39;9.37;;;4.93;;
68923;SDS011;55961;52.156;20.942;2023-07-24T00:06:05;8.73;;;4.82;;
68923;SDS011;55961;52.156;20.942;2023-07-24T00:08:40;7.10;;;4.75;;
68923;SDS011;55961;52.156;20.942;2023-07-24T00:11:07;10.00;;;4.80;;
68923;SDS011;55961;52.156;20.942;2023-07-24T00:13:34;9.83;;;4.70;;
68923;SDS011;55961;52.156;20.942;2023-07-24T00:16:07;7.47;;;4.30;;
68923;SDS011;55961;52.156;20.942;2023-07-24T00:18:34;9.70;;;4.90;;
68923;SDS011;55961;52.156;20.942;2023-07-24T00:21:00;9.82;;;4.78;;
68923;SDS011;55961;52.156;20.942;2023-07-24T00:23:26;10.07;;;5.27;;
68923;SDS011;55961;52.156;20.942;2023-07-24T00:25:52;7.63;;;4.63;;
68923;SDS011;55961;52.156;20.942;2023-07-24T00:28:19;10.02;;;5.20;;
68923;SDS011;55961;52.156;20.942;2023-07-24T00:30:45;8.95;;;4.50;;
68923;SDS011;55961;52.156;20.942;2023-07-24T00:33:11;8.77;;;4.60;;
68923;SDS011;55961;52.156;20.942;2023-07-24T00:35:37;8.85;;;4.90;;
68923;SDS011;55961;52.156;20.942;2023-07-24T00:38:03;8.00;;;4.82;;
68923;SDS011;55961;52.156;20.942;2023-07-24T00:40:29;7.63;;;4.63;;
68923;SDS011;55961;52.156;20.942;2023-07-24T00:42:55;10.90;;;4.77;;
68923;SDS011;55961;52.156;20.942;2023-07-24T00:45:21;8.35;;;4.50;;
68923;SDS011;55961;52.156;20.942;2023-07-24T00:47:48;8.75;;;4.90;;
68923;SDS011;55961;52.156;20.942;2023-07-24T00:50:14;9.40;;;4.50;;
68923;SDS011;55961;52.156;20.942;2023-07-24T00:52:41;8.07;;;4.63;;
68923;SDS011;55961;52.156;20.942;2023-07-24T00:55:08;6.95;;;4.30;;
68923;SDS011;55961;52.156;20.942;2023-07-24T00:57:35;7.50;;;5.07;;
68923;SDS011;55961;52.156;20.942;2023-07-24T01:00:02;9.40;;;4.57;;
68923;SDS011;55961;52.156;20.942;2023-07-24T01:02:29;8.77;;;4.28;;
68923;SDS011;55961;52.156;20.942;2023-07-24T01:04:55;7.00;;;4.17;;
68923;SDS011;55961;52.156;20.942;2023-07-24T01:07:21;7.32;;;4.28;;
68923;SDS011;55961;52.156;20.942;2023-07-24T01:09:47;7.90;;;4.78;;
68923;SDS011;55961;52.156;20.942;2023-07-24T01:15:48;8.07;;;3.80;;
68923;SDS011;55961;52.156;20.942;2023-07-24T01:18:00;7.23;;;4.17;;
68923;SDS011;55961;52.156;20.942;2023-07-24T01:20:30;8.40;;;3.92;;
68923;SDS011;55961;52.156;20.942;2023-07-24T01:25:35;8.48;;;4.65;;
68923;SDS011;55961;52.156;20.942;2023-07-24T01:28:09;7.63;;;4.15;;
68923;SDS011;55961;52.156;20.942;2023-07-24T01:30:35;12.93;;;4.10;;
68923;SDS011;55961;52.156;20.942;2023-07-24T01:33:02;10.10;;;4.20;;
68923;SDS011;55961;52.156;20.942;2023-07-24T01:35:28;9.55;;;4.25;;
68923;SDS011;55961;52.156;20.942;2023-07-24T01:37:55;8.98;;;3.90;;
68923;SDS011;55961;52.156;20.942;2023-07-24T01:40:22;10.75;;;4.10;;
68923;SDS011;55961;52.156;20.942;2023-07-24T01:42:49;10.50;;;4.50;;
68923;SDS011;55961;52.156;20.942;2023-07-24T01:45:15;7.65;;;4.22;;
68923;SDS011;55961;52.156;20.942;2023-07-24T01:47:41;7.88;;;4.03;;
68923;SDS011;55961;52.156;20.942;2023-07-24T01:50:07;8.07;;;4.18;;
68923;SDS011;55961;52.156;20.942;2023-07-24T01:52:34;7.72;;;3.88;;
68923;SDS011;55961;52.156;20.942;2023-07-24T01:55:00;9.17;;;3.67;;
68923;SDS011;55961;52.156;20.942;2023-07-24T01:57:25;9.35;;;3.75;;
68923;SDS011;55961;52.156;20.942;2023-07-24T01:59:52;8.35;;;3.65;;
68923;SDS011;55961;52.156;20.942;2023-07-24T02:02:17;7.33;;;3.83;;
68923;SDS011;55961;52.156;20.942;2023-07-24T02:04:43;10.05;;;4.00;;
68923;SDS011;55961;52.156;20.942;2023-07-24T02:07:11;7.47;;;3.22;;
68923;SDS011;55961;52.156;20.942;2023-07-24T02:09:37;9.18;;;3.65;;
68923;SDS011;55961;52.156;20.942;2023-07-24T02:12:03;7.30;;;3.43;;
68923;SDS011;55961;52.156;20.942;2023-07-24T02:14:30;6.78;;;4.03;;
68923;SDS011;55961;52.156;20.942;2023-07-24T02:16:55;7.15;;;4.18;;
68923;SDS011;55961;52.156;20.942;2023-07-24T02:19:22;7.88;;;3.72;;
68923;SDS011;55961;52.156;20.942;2023-07-24T02:21:47;8.13;;;3.50;;
68923;SDS011;55961;52.156;20.942;2023-07-24T02:24:13;7.25;;;4.15;;
68923;SDS011;55961;52.156;20.942;2023-07-24T02:26:39;8.30;;;3.83;;
68923;SDS011;55961;52.156;20.942;2023-07-24T02:29:05;6.87;;;3.90;;
68923;SDS011;55961;52.156;20.942;2023-07-24T02:31:31;6.60;;;3.42;;
68923;SDS011;55961;52.156;20.942;2023-07-24T02:33:57;8.25;;;4.20;;
68923;SDS011;55961;52.156;20.942;2023-07-24T02:36:23;6.30;;;3.50;;
68923;SDS011;55961;52.156;20.942;2023-07-24T02:38:49;7.47;;;3.80;;
68923;SDS011;55961;52.156;20.942;2023-07-24T02:41:15;9.10;;;3.65;;
68923;SDS011;55961;52.156;20.942;2023-07-24T02:43:41;7.15;;;3.50;;
68923;SDS011;55961;52.156;20.942;2023-07-24T02:46:06;8.57;;;3.60;;
68923;SDS011;55961;52.156;20.942;2023-07-24T02:48:32;8.80;;;3.60;;
68923;SDS011;55961;52.156;20.942;2023-07-24T02:50:59;6.25;;;3.25;;
68923;SDS011;55961;52.156;20.942;2023-07-24T02:53:26;6.57;;;3.03;;
68923;SDS011;55961;52.156;20.942;2023-07-24T02:55:51;7.78;;;2.97;;
68923;SDS011;55961;52.156;20.942;2023-07-24T02:58:17;7.88;;;3.35;;
68923;SDS011;55961;52.156;20.942;2023-07-24T03:00:46;6.40;;;3.42;;
68923;SDS011;55961;52.156;20.942;2023-07-24T03:03:12;5.93;;;2.87;;
68923;SDS011;55961;52.156;20.942;2023-07-24T03:05:37;6.03;;;2.80;;
68923;SDS011;55961;52.156;20.942;2023-07-24T03:08:03;7.38;;;3.20;;
68923;SDS011;55961;52.156;20.942;2023-07-24T03:10:29;8.70;;;3.07;;
68923;SDS011;55961;52.156;20.942;2023-07-24T03:12:55;8.33;;;2.80;;
68923;SDS011;55961;52.156;20.942;2023-07-24T03:15:21;7.40;;;3.35;;
68923;SDS011;55961;52.156;20.942;2023-07-24T03:17:47;6.35;;;3.30;;
68923;SDS011;55961;52.156;20.942;2023-07-24T03:22:41;8.75;;;2.60;;
68923;SDS011;55961;52.156;20.942;2023-07-24T03:25:08;6.25;;;2.90;;
68923;SDS011;55961;52.156;20.942;2023-07-24T03:27:34;6.53;;;2.75;;
68923;SDS011;55961;52.156;20.942;2023-07-24T03:30:00;8.10;;;2.90;;
68923;SDS011;55961;52.156;20.942;2023-07-24T03:32:26;8.48;;;3.20;;
68923;SDS011;55961;52.156;20.942;2023-07-24T03:34:52;7.28;;;2.70;;
68923;SDS011;55961;52.156;20.942;2023-07-24T03:37:18;6.88;;;2.88;;
68923;SDS011;55961;52.156;20.942;2023-07-24T03:39:44;5.68;;;2.65;;
68923;SDS011;55961;52.156;20.942;2023-07-24T03:42:10;6.27;;;2.53;;
68923;SDS011;55961;52.156;20.942;2023-07-24T03:44:40;6.53;;;3.10;;
68923;SDS011;55961;52.156;20.942;2023-07-24T03:47:06;6.13;;;2.90;;
68923;SDS011;55961;52.156;20.942;2023-07-24T03:49:32;5.68;;;2.90;;
68923;SDS011;55961;52.156;20.942;2023-07-24T03:51:59;7.40;;;2.95;;
68923;SDS011;55961;52.156;20.942;2023-07-24T03:54:25;6.50;;;3.07;;
68923;SDS011;55961;52.156;20.942;2023-07-24T03:56:51;7.38;;;3.08;;
68923;SDS011;55961;52.156;20.942;2023-07-24T03:59:17;7.07;;;2.38;;
68923;SDS011;55961;52.156;20.942;2023-07-24T04:01:43;7.83;;;3.20;;
68923;SDS011;55961;52.156;20.942;2023-07-24T04:04:08;8.30;;;2.80;;
68923;SDS011;55961;52.156;20.942;2023-07-24T04:06:35;6.88;;;2.95;;
68923;SDS011;55961;52.156;20.942;2023-07-24T04:09:00;6.10;;;2.97;;
68923;SDS011;55961;52.156;20.942;2023-07-24T04:11:26;7.88;;;2.90;;
68923;SDS011;55961;52.156;20.942;2023-07-24T04:13:52;6.22;;;2.65;;
68923;SDS011;55961;52.156;20.942;2023-07-24T04:16:18;6.53;;;2.60;;
68923;SDS011;55961;52.156;20.942;2023-07-24T04:18:44;5.40;;;2.17;;
68923;SDS011;55961;52.156;20.942;2023-07-24T04:21:10;7.07;;;3.00;;
68923;SDS011;55961;52.156;20.942;2023-07-24T04:23:36;7.77;;;3.00;;
68923;SDS011;55961;52.156;20.942;2023-07-24T04:26:02;7.07;;;3.00;;
68923;SDS011;55961;52.156;20.942;2023-07-24T04:28:28;8.30;;;2.90;;
68923;SDS011;55961;52.156;20.942;2023-07-24T04:30:54;7.85;;;3.50;;
68923;SDS011;55961;52.156;20.942;2023-07-24T04:33:20;7.40;;;3.50;;
68923;SDS011;55961;52.156;20.942;2023-07-24T04:35:49;6.82;;;3.10;;
68923;SDS011;55961;52.156;20.942;2023-07-24T04:38:15;9.35;;;3.30;;
68923;SDS011;55961;52.156;20.942;2023-07-24T04:40:43;9.68;;;3.22;;
68923;SDS011;55961;52.156;20.942;2023-07-24T04:43:10;8.65;;;2.75;;
68923;SDS011;55961;52.156;20.942;2023-07-24T04:45:36;7.10;;;3.77;;
68923;SDS011;55961;52.156;20.942;2023-07-24T04:48:02;9.77;;;3.20;;
68923;SDS011;55961;52.156;20.942;2023-07-24T04:50:28;5.97;;;3.28;;
68923;SDS011;55961;52.156;20.942;2023-07-24T04:52:54;8.63;;;4.72;;
68923;SDS011;55961;52.156;20.942;2023-07-24T04:55:21;6.67;;;2.90;;
68923;SDS011;55961;52.156;20.942;2023-07-24T04:57:47;6.15;;;2.60;;
68923;SDS011;55961;52.156;20.942;2023-07-24T05:00:13;5.95;;;2.85;;
68923;SDS011;55961;52.156;20.942;2023-07-24T05:02:39;7.95;;;3.20;;
68923;SDS011;55961;52.156;20.942;2023-07-24T05:05:06;6.93;;;2.92;;
68923;SDS011;55961;52.156;20.942;2023-07-24T05:07:32;6.77;;;2.87;;
68923;SDS011;55961;52.156;20.942;2023-07-24T05:09:58;6.72;;;3.00;;
68923;SDS011;55961;52.156;20.942;2023-07-24T05:12:24;8.77;;;3.63;;
68923;SDS011;55961;52.156;20.942;2023-07-24T05:14:59;9.45;;;3.00;;
68923;SDS011;55961;52.156;20.942;2023-07-24T05:17:34;5.78;;;3.20;;
68923;SDS011;55961;52.156;20.942;2023-07-24T05:20:00;9.13;;;3.23;;
68923;SDS011;55961;52.156;20.942;2023-07-24T05:22:26;6.20;;;2.80;;
68923;SDS011;55961;52.156;20.942;2023-07-24T05:24:52;6.20;;;2.97;;
68923;SDS011;55961;52.156;20.942;2023-07-24T05:27:18;9.13;;;3.30;;
68923;SDS011;55961;52.156;20.942;2023-07-24T05:29:44;7.32;;;2.92;;
68923;SDS011;55961;52.156;20.942;2023-07-24T05:32:10;7.13;;;3.00;;
68923;SDS011;55961;52.156;20.942;2023-07-24T05:34:36;8.75;;;2.92;;
68923;SDS011;55961;52.156;20.942;2023-07-24T05:37:02;6.77;;;3.00;;
68923;SDS011;55961;52.156;20.942;2023-07-24T05:39:29;6.07;;;2.80;;
68923;SDS011;55961;52.156;20.942;2023-07-24T05:41:55;8.35;;;3.13;;
68923;SDS011;55961;52.156;20.942;2023-07-24T05:44:21;6.15;;;2.70;;
68923;SDS011;55961;52.156;20.942;2023-07-24T05:46:47;6.07;;;2.53;;
68923;SDS011;55961;52.156;20.942;2023-07-24T05:49:13;6.28;;;2.83;;
68923;SDS011;55961;52.156;20.942;2023-07-24T05:51:39;6.85;;;2.72;;
68923;SDS011;55961;52.156;20.942;2023-07-24T05:54:05;6.38;;;2.67;;
68923;SDS011;55961;52.156;20.942;2023-07-24T05:56:31;6.93;;;2.60;;
68923;SDS011;55961;52.156;20.942;2023-07-24T05:58:57;5.43;;;2.95;;
68923;SDS011;55961;52.156;20.942;2023-07-24T06:01:23;5.17;;;2.50;;
68923;SDS011;55961;52.156;20.942;2023-07-24T06:03:49;7.93;;;3.13;;
68923;SDS011;55961;52.156;20.942;2023-07-24T06:06:14;5.97;;;2.85;;
68923;SDS011;55961;52.156;20.942;2023-07-24T06:08:40;7.57;;;2.70;;
68923;SDS011;55961;52.156;20.942;2023-07-24T06:11:06;6.40;;;2.63;;
68923;SDS011;55961;52.156;20.942;2023-07-24T06:13:32;5.05;;;2.70;;
68923;SDS011;55961;52.156;20.942;2023-07-24T06:15:58;5.68;;;2.72;;
68923;SDS011;55961;52.156;20.942;2023-07-24T06:18:24;6.80;;;2.67;;
68923;SDS011;55961;52.156;20.942;2023-07-24T06:20:54;7.65;;;2.92;;
68923;SDS011;55961;52.156;20.942;2023-07-24T06:23:20;6.70;;;3.13;;
68923;SDS011;55961;52.156;20.942;2023-07-24T06:25:45;8.67;;;4.37;;
68923;SDS011;55961;52.156;20.942;2023-07-24T06:28:12;7.70;;;3.33;;
68923;SDS011;55961;52.156;20.942;2023-07-24T06:30:38;9.88;;;3.70;;
68923;SDS011;55961;52.156;20.942;2023-07-24T06:33:04;7.28;;;2.75;;
68923;SDS011;55961;52.156;20.942;2023-07-24T06:35:31;9.27;;;2.70;;
68923;SDS011;55961;52.156;20.942;2023-07-24T06:37:57;5.22;;;2.63;;
68923;SDS011;55961;52.156;20.942;2023-07-24T06:40:23;6.63;;;2.70;;
68923;SDS011;55961;52.156;20.942;2023-07-24T06:42:49;5.90;;;2.90;;
68923;SDS011;55961;52.156;20.942;2023-07-24T06:45:15;6.00;;;2.70;;
68923;SDS011;55961;52.156;20.942;2023-07-24T06:47:41;5.25;;;2.65;;
68923;SDS011;55961;52.156;20.942;2023-07-24T06:50:07;7.18;;;2.75;;
68923;SDS011;55961;52.156;20.942;2023-07-24T06:52:33;6.53;;;2.60;;
68923;SDS011;55961;52.156;20.942;2023-07-24T06:54:59;6.97;;;2.22;;
68923;SDS011;55961;52.156;20.942;2023-07-24T06:57:25;6.40;;;2.63;;
68923;SDS011;55961;52.156;20.942;2023-07-24T06:59:51;6.83;;;2.80;;
68923;SDS011;55961;52.156;20.942;2023-07-24T07:02:17;6.05;;;2.30;;
68923;SDS011;55961;52.156;20.942;2023-07-24T07:04:43;4.93;;;2.50;;
68923;SDS011;55961;52.156;20.942;2023-07-24T07:07:09;10.73;;;2.58;;
68923;SDS011;55961;52.156;20.942;2023-07-24T07:09:35;5.03;;;2.23;;
68923;SDS011;55961;52.156;20.942;2023-07-24T07:12:01;5.68;;;2.33;;
68923;SDS011;55961;52.156;20.942;2023-07-24T07:14:27;6.07;;;2.45;;
68923;SDS011;55961;52.156;20.942;2023-07-24T07:16:53;7.90;;;2.78;;
68923;SDS011;55961;52.156;20.942;2023-07-24T07:19:19;5.47;;;2.87;;
68923;SDS011;55961;52.156;20.942;2023-07-24T07:21:45;7.80;;;2.63;;
68923;SDS011;55961;52.156;20.942;2023-07-24T07:24:11;5.00;;;2.45;;
68923;SDS011;55961;52.156;20.942;2023-07-24T07:26:37;6.30;;;2.63;;
68923;SDS011;55961;52.156;20.942;2023-07-24T07:29:02;6.93;;;2.37;;
68923;SDS011;55961;52.156;20.942;2023-07-24T07:31:28;5.28;;;2.50;;
68923;SDS011;55961;52.156;20.942;2023-07-24T07:33:54;6.20;;;2.20;;
68923;SDS011;55961;52.156;20.942;2023-07-24T07:36:20;4.73;;;2.40;;
68923;SDS011;55961;52.156;20.942;2023-07-24T07:38:48;6.00;;;2.67;;
68923;SDS011;55961;52.156;20.942;2023-07-24T07:41:14;4.70;;;2.30;;
68923;SDS011;55961;52.156;20.942;2023-07-24T07:43:40;5.53;;;2.63;;
68923;SDS011;55961;52.156;20.942;2023-07-24T07:46:06;4.80;;;2.17;;
68923;SDS011;55961;52.156;20.942;2023-07-24T07:48:32;8.23;;;2.20;;
68923;SDS011;55961;52.156;20.942;2023-07-24T07:50:58;7.50;;;2.40;;
68923;SDS011;55961;52.156;20.942;2023-07-24T07:53:24;4.77;;;2.50;;
68923;SDS011;55961;52.156;20.942;2023-07-24T07:55:56;4.50;;;2.20;;
68923;SDS011;55961;52.156;20.942;2023-07-24T07:58:22;4.38;;;2.00;;
68923;SDS011;55961;52.156;20.942;2023-07-24T08:00:49;5.55;;;2.20;;
68923;SDS011;55961;52.156;20.942;2023-07-24T08:03:15;4.50;;;2.23;;
68923;SDS011;55961;52.156;20.942;2023-07-24T08:05:41;5.60;;;2.25;;
68923;SDS011;55961;52.156;20.942;2023-07-24T08:08:07;7.05;;;2.67;;
68923;SDS011;55961;52.156;20.942;2023-07-24T08:10:33;5.85;;;2.25;;
68923;SDS011;55961;52.156;20.942;2023-07-24T08:13:01;6.93;;;2.10;;
68923;SDS011;55961;52.156;20.942;2023-07-24T08:15:27;5.35;;;2.35;;
68923;SDS011;55961;52.156;20.942;2023-07-24T08:17:53;7.72;;;2.40;;
68923;SDS011;55961;52.156;20.942;2023-07-24T08:20:19;6.35;;;2.42;;
68923;SDS011;55961;52.156;20.942;2023-07-24T08:22:45;5.53;;;2.53;;
68923;SDS011;55961;52.156;20.942;2023-07-24T08:25:11;6.10;;;2.20;;
68923;SDS011;55961;52.156;20.942;2023-07-24T08:27:37;4.57;;;2.13;;
68923;SDS011;55961;52.156;20.942;2023-07-24T08:30:04;4.73;;;2.37;;
68923;SDS011;55961;52.156;20.942;2023-07-24T08:32:30;5.03;;;2.20;;
68923;SDS011;55961;52.156;20.942;2023-07-24T08:34:56;5.68;;;2.33;;
68923;SDS011;55961;52.156;20.942;2023-07-24T08:37:22;5.47;;;2.03;;
68923;SDS011;55961;52.156;20.942;2023-07-24T08:39:48;6.53;;;1.90;;
68923;SDS011;55961;52.156;20.942;2023-07-24T08:42:14;4.35;;;2.00;;
68923;SDS011;55961;52.156;20.942;2023-07-24T08:44:40;5.22;;;2.15;;
68923;SDS011;55961;52.156;20.942;2023-07-24T08:47:10;4.30;;;2.30;;
68923;SDS011;55961;52.156;20.942;2023-07-24T08:49:39;5.05;;;2.22;;
68923;SDS011;55961;52.156;20.942;2023-07-24T08:52:07;4.85;;;2.58;;
68923;SDS011;55961;52.156;20.942;2023-07-24T08:54:35;7.57;;;2.58;;
68923;SDS011;55961;52.156;20.942;2023-07-24T08:57:03;4.15;;;2.25;;
68923;SDS011;55961;52.156;20.942;2023-07-24T08:59:32;5.70;;;2.30;;
68923;SDS011;55961;52.156;20.942;2023-07-24T09:01:57;4.47;;;2.40;;
68923;SDS011;55961;52.156;20.942;2023-07-24T09:04:24;5.60;;;2.50;;
68923;SDS011;55961;52.156;20.942;2023-07-24T09:06:50;6.35;;;2.78;;
68923;SDS011;55961;52.156;20.942;2023-07-24T09:09:17;6.38;;;2.78;;
68923;SDS011;55961;52.156;20.942;2023-07-24T09:11:49;5.43;;;2.53;;
68923;SDS011;55961;52.156;20.942;2023-07-24T09:14:29;4.63;;;2.22;;
68923;SDS011;55961;52.156;20.942;2023-07-24T09:19:29;5.70;;;2.28;;
68923;SDS011;55961;52.156;20.942;2023-07-24T09:21:55;6.80;;;2.70;;
68923;SDS011;55961;52.156;20.942;2023-07-24T09:24:21;6.03;;;2.22;;
68923;SDS011;55961;52.156;20.942;2023-07-24T09:26:50;4.70;;;2.55;;
68923;SDS011;55961;52.156;20.942;2023-07-24T09:29:17;6.30;;;2.60;;
68923;SDS011;55961;52.156;20.942;2023-07-24T09:31:44;7.17;;;2.50;;
68923;SDS011;55961;52.156;20.942;2023-07-24T09:34:17;5.15;;;2.40;;
68923;SDS011;55961;52.156;20.942;2023-07-24T09:36:43;5.80;;;2.30;;
68923;SDS011;55961;52.156;20.942;2023-07-24T09:39:10;5.35;;;2.42;;
68923;SDS011;55961;52.156;20.942;2023-07-24T09:41:37;6.30;;;2.50;;
68923;SDS011;55961;52.156;20.942;2023-07-24T09:44:04;6.37;;;2.43;;
68923;SDS011;55961;52.156;20.942;2023-07-24T09:46:31;6.25;;;2.63;;
68923;SDS011;55961;52.156;20.942;2023-07-24T09:48:57;9.45;;;2.50;;
68923;SDS011;55961;52.156;20.942;2023-07-24T09:51:24;5.72;;;2.50;;
68923;SDS011;55961;52.156;20.942;2023-07-24T09:53:55;4.85;;;2.47;;
68923;SDS011;55961;52.156;20.942;2023-07-24T09:56:23;4.93;;;2.50;;
68923;SDS011;55961;52.156;20.942;2023-07-24T09:58:50;6.90;;;2.75;;
68923;SDS011;55961;52.156;20.942;2023-07-24T10:01:20;4.90;;;2.47;;
68923;SDS011;55961;52.156;20.942;2023-07-24T10:03:47;5.57;;;2.72;;
68923;SDS011;55961;52.156;20.942;2023-07-24T10:06:15;5.72;;;3.33;;
68923;SDS011;55961;52.156;20.942;2023-07-24T10:08:42;5.10;;;2.70;;
68923;SDS011;55961;52.156;20.942;2023-07-24T10:11:08;6.38;;;2.80;;
68923;SDS011;55961;52.156;20.942;2023-07-24T10:13:36;5.82;;;2.90;;
68923;SDS011;55961;52.156;20.942;2023-07-24T10:16:03;4.90;;;3.05;;
68923;SDS011;55961;52.156;20.942;2023-07-24T10:18:32;4.70;;;2.40;;
68923;SDS011;55961;52.156;20.942;2023-07-24T10:21:00;5.73;;;2.97;;
68923;SDS011;55961;52.156;20.942;2023-07-24T10:23:26;6.97;;;2.90;;
68923;SDS011;55961;52.156;20.942;2023-07-24T10:25:52;7.15;;;3.05;;
68923;SDS011;55961;52.156;20.942;2023-07-24T10:28:18;5.18;;;2.80;;
68923;SDS011;55961;52.156;20.942;2023-07-24T10:30:44;7.35;;;3.50;;
68923;SDS011;55961;52.156;20.942;2023-07-24T10:33:21;7.40;;;3.17;;
68923;SDS011;55961;52.156;20.942;2023-07-24T10:35:48;5.78;;;2.92;;
68923;SDS011;55961;52.156;20.942;2023-07-24T10:38:31;4.82;;;2.67;;
68923;SDS011;55961;52.156;20.942;2023-07-24T10:41:02;5.05;;;3.00;;
68923;SDS011;55961;52.156;20.942;2023-07-24T10:43:39;6.23;;;3.10;;
68923;SDS011;55961;52.156;20.942;2023-07-24T10:46:34;6.57;;;2.90;;
68923;SDS011;55961;52.156;20.942;2023-07-24T10:49:04;7.32;;;3.53;;
68923;SDS011;55961;52.156;20.942;2023-07-24T10:51:31;5.22;;;2.90;;
68923;SDS011;55961;52.156;20.942;2023-07-24T10:53:59;6.03;;;3.13;;
68923;SDS011;55961;52.156;20.942;2023-07-24T10:56:27;5.67;;;3.10;;
68923;SDS011;55961;52.156;20.942;2023-07-24T10:58:53;6.18;;;3.35;;
68923;SDS011;55961;52.156;20.942;2023-07-24T11:01:19;8.30;;;3.13;;
68923;SDS011;55961;52.156;20.942;2023-07-24T11:03:45;6.55;;;3.10;;
68923;SDS011;55961;52.156;20.942;2023-07-24T11:06:14;5.67;;;3.07;;
68923;SDS011;55961;52.156;20.942;2023-07-24T11:08:52;7.50;;;3.22;;
68923;SDS011;55961;52.156;20.942;2023-07-24T11:11:19;6.47;;;2.97;;
68923;SDS011;55961;52.156;20.942;2023-07-24T11:13:45;8.65;;;3.30;;
68923;SDS011;55961;52.156;20.942;2023-07-24T11:16:11;8.87;;;3.30;;
68923;SDS011;55961;52.156;20.942;2023-07-24T11:18:47;6.75;;;3.00;;
68923;SDS011;55961;52.156;20.942;2023-07-24T11:21:14;5.75;;;3.80;;
68923;SDS011;55961;52.156;20.942;2023-07-24T11:23:48;9.55;;;3.30;;
68923;SDS011;55961;52.156;20.942;2023-07-24T11:26:21;8.00;;;3.55;;
68923;SDS011;55961;52.156;20.942;2023-07-24T11:28:51;7.27;;;2.90;;
68923;SDS011;55961;52.156;20.942;2023-07-24T11:31:18;7.07;;;3.28;;
68923;SDS011;55961;52.156;20.942;2023-07-24T11:33:47;7.43;;;3.72;;
68923;SDS011;55961;52.156;20.942;2023-07-24T11:36:14;6.40;;;4.15;;
68923;SDS011;55961;52.156;20.942;2023-07-24T11:38:41;8.40;;;3.50;;
68923;SDS011;55961;52.156;20.942;2023-07-24T11:41:08;8.27;;;3.47;;
68923;SDS011;55961;52.156;20.942;2023-07-24T11:43:34;7.60;;;3.45;;
68923;SDS011;55961;52.156;20.942;2023-07-24T11:46:00;8.45;;;3.72;;
68923;SDS011;55961;52.156;20.942;2023-07-24T11:48:26;5.40;;;2.70;;
68923;SDS011;55961;52.156;20.942;2023-07-24T11:50:55;6.60;;;3.00;;
68923;SDS011;55961;52.156;20.942;2023-07-24T11:53:26;6.18;;;3.40;;
68923;SDS011;55961;52.156;20.942;2023-07-24T11:55:54;7.38;;;3.20;;
68923;SDS011;55961;52.156;20.942;2023-07-24T11:58:22;5.28;;;3.15;;
68923;SDS011;55961;52.156;20.942;2023-07-24T12:00:51;5.07;;;3.10;;
68923;SDS011;55961;52.156;20.942;2023-07-24T12:03:35;7.93;;;3.80;;
68923;SDS011;55961;52.156;20.942;2023-07-24T12:06:01;5.85;;;3.30;;
68923;SDS011;55961;52.156;20.942;2023-07-24T12:08:32;5.68;;;3.25;;
68923;SDS011;55961;52.156;20.942;2023-07-24T12:10:59;6.63;;;3.50;;
68923;SDS011;55961;52.156;20.942;2023-07-24T12:13:26;6.82;;;3.45;;
68923;SDS011;55961;52.156;20.942;2023-07-24T12:15:53;6.73;;;3.30;;
68923;SDS011;55961;52.156;20.942;2023-07-24T12:18:20;7.43;;;3.08;;
68923;SDS011;55961;52.156;20.942;2023-07-24T12:20:45;8.13;;;3.35;;
68923;SDS011;55961;52.156;20.942;2023-07-24T12:23:12;6.85;;;3.60;;
68923;SDS011;55961;52.156;20.942;2023-07-24T12:25:38;7.87;;;3.67;;
68923;SDS011;55961;52.156;20.942;2023-07-24T12:28:04;7.88;;;3.70;;
68923;SDS011;55961;52.156;20.942;2023-07-24T12:30:30;5.37;;;3.17;;
68923;SDS011;55961;52.156;20.942;2023-07-24T12:32:56;5.37;;;2.83;;
68923;SDS011;55961;52.156;20.942;2023-07-24T12:35:22;6.22;;;2.95;;
68923;SDS011;55961;52.156;20.942;2023-07-24T12:37:48;5.78;;;3.20;;
68923;SDS011;55961;52.156;20.942;2023-07-24T12:40:13;6.17;;;3.53;;
68923;SDS011;55961;52.156;20.942;2023-07-24T12:42:39;5.13;;;3.20;;
68923;SDS011;55961;52.156;20.942;2023-07-24T12:45:05;6.75;;;3.47;;
68923;SDS011;55961;52.156;20.942;2023-07-24T12:47:32;6.68;;;4.00;;
68923;SDS011;55961;52.156;20.942;2023-07-24T12:49:58;6.67;;;3.70;;
68923;SDS011;55961;52.156;20.942;2023-07-24T12:52:26;7.38;;;3.53;;
68923;SDS011;55961;52.156;20.942;2023-07-24T12:54:54;6.15;;;3.38;;
68923;SDS011;55961;52.156;20.942;2023-07-24T12:57:20;6.75;;;3.45;;
68923;SDS011;55961;52.156;20.942;2023-07-24T12:59:46;6.57;;;3.23;;
68923;SDS011;55961;52.156;20.942;2023-07-24T13:02:12;8.68;;;3.50;;
68923;SDS011;55961;52.156;20.942;2023-07-24T13:04:37;6.22;;;3.30;;
68923;SDS011;55961;52.156;20.942;2023-07-24T13:07:04;7.35;;;3.42;;
68923;SDS011;55961;52.156;20.942;2023-07-24T13:09:30;6.53;;;3.10;;
68923;SDS011;55961;52.156;20.942;2023-07-24T13:11:56;6.53;;;3.80;;
68923;SDS011;55961;52.156;20.942;2023-07-24T13:14:22;6.35;;;3.72;;
68923;SDS011;55961;52.156;20.942;2023-07-24T13:16:49;4.90;;;3.60;;
68923;SDS011;55961;52.156;20.942;2023-07-24T13:19:15;5.67;;;3.57;;
68923;SDS011;55961;52.156;20.942;2023-07-24T13:21:42;5.30;;;3.20;;
68923;SDS011;55961;52.156;20.942;2023-07-24T13:24:08;8.55;;;3.47;;
68923;SDS011;55961;52.156;20.942;2023-07-24T13:26:35;6.03;;;3.40;;
68923;SDS011;55961;52.156;20.942;2023-07-24T13:29:02;9.27;;;3.25;;
68923;SDS011;55961;52.156;20.942;2023-07-24T13:31:28;6.00;;;3.30;;
68923;SDS011;55961;52.156;20.942;2023-07-24T13:33:56;7.60;;;3.22;;
68923;SDS011;55961;52.156;20.942;2023-07-24T13:36:22;6.60;;;3.13;;
68923;SDS011;55961;52.156;20.942;2023-07-24T13:38:48;7.68;;;3.40;;
68923;SDS011;55961;52.156;20.942;2023-07-24T13:41:16;5.53;;;2.93;;
68923;SDS011;55961;52.156;20.942;2023-07-24T13:43:42;7.28;;;3.63;;
68923;SDS011;55961;52.156;20.942;2023-07-24T13:46:08;8.32;;;3.90;;
68923;SDS011;55961;52.156;20.942;2023-07-24T13:48:34;6.43;;;3.60;;
68923;SDS011;55961;52.156;20.942;2023-07-24T13:51:00;10.48;;;3.83;;
68923;SDS011;55961;52.156;20.942;2023-07-24T13:53:26;5.67;;;3.07;;
68923;SDS011;55961;52.156;20.942;2023-07-24T13:55:54;6.90;;;3.55;;
68923;SDS011;55961;52.156;20.942;2023-07-24T13:58:20;5.97;;;3.22;;
68923;SDS011;55961;52.156;20.942;2023-07-24T14:00:46;9.25;;;3.10;;
68923;SDS011;55961;52.156;20.942;2023-07-24T14:03:12;5.73;;;2.70;;
68923;SDS011;55961;52.156;20.942;2023-07-24T14:05:38;5.97;;;3.00;;
68923;SDS011;55961;52.156;20.942;2023-07-24T14:08:04;7.68;;;3.10;;
68923;SDS011;55961;52.156;20.942;2023-07-24T14:10:31;7.77;;;3.17;;
68923;SDS011;55961;52.156;20.942;2023-07-24T14:12:57;5.57;;;2.97;;
68923;SDS011;55961;52.156;20.942;2023-07-24T14:15:23;6.78;;;3.40;;
68923;SDS011;55961;52.156;20.942;2023-07-24T14:17:49;7.30;;;3.05;;
68923;SDS011;55961;52.156;20.942;2023-07-24T14:20:15;6.32;;;2.85;;
68923;SDS011;55961;52.156;20.942;2023-07-24T14:22:41;6.47;;;3.10;;
68923;SDS011;55961;52.156;20.942;2023-07-24T14:25:07;6.57;;;3.35;;
68923;SDS011;55961;52.156;20.942;2023-07-24T14:27:33;6.45;;;3.67;;
68923;SDS011;55961;52.156;20.942;2023-07-24T14:29:59;7.72;;;3.47;;
68923;SDS011;55961;52.156;20.942;2023-07-24T14:32:25;7.20;;;3.23;;
68923;SDS011;55961;52.156;20.942;2023-07-24T14:34:51;5.63;;;3.40;;
68923;SDS011;55961;52.156;20.942;2023-07-24T14:37:18;6.35;;;3.92;;
68923;SDS011;55961;52.156;20.942;2023-07-24T14:39:45;9.18;;;3.78;;
68923;SDS011;55961;52.156;20.942;2023-07-24T14:42:11;7.45;;;3.70;;